createdAt,value
2018-07-10T00:00:44.137Z,100583.25
2018-07-10T00:03:29.361Z,100590.41
2018-07-10T00:09:22.404Z,100584.31
2018-07-10T00:11:50.266Z,100576.25
2018-07-10T00:14:18.058Z,100577.92
2018-07-10T00:16:45.969Z,100578.23
2018-07-10T00:19:13.868Z,100576.66
2018-07-10T00:21:41.819Z,100578.07
2018-07-10T00:24:09.712Z,100572.51
2018-07-10T00:26:37.641Z,100581.67
2018-07-10T00:29:05.591Z,100579.84
2018-07-10T00:31:33.525Z,100585.68
2018-07-10T00:34:01.480Z,100586.22
2018-07-10T00:36:29.409Z,100572.56
2018-07-10T00:39:06.708Z,100577.25
2018-07-10T00:41:35.780Z,100569.16
2018-07-10T00:44:04.584Z,100565.22
2018-07-10T00:46:35.009Z,100566.77
2018-07-10T00:49:03.017Z,100568.99
2018-07-10T00:51:32.957Z,100564.22
2018-07-10T00:54:00.894Z,100562.34
2018-07-10T00:56:28.950Z,100555.77
2018-07-10T00:58:56.989Z,100554.80
2018-07-10T01:01:25.620Z,100550.31
2018-07-10T01:03:53.545Z,100549.64
2018-07-10T01:06:21.943Z,100546.28
2018-07-10T01:08:49.932Z,100546.23
2018-07-10T01:11:18.907Z,100540.06
2018-07-10T01:13:47.876Z,100531.50
2018-07-10T01:16:23.300Z,100540.09
2018-07-10T01:18:55.800Z,100537.12
2018-07-10T01:21:24.636Z,100526.84
2018-07-10T01:23:59.449Z,100534.53
2018-07-10T01:26:32.093Z,100527.98
2018-07-10T01:30:05.869Z,100531.84
2018-07-10T01:32:34.244Z,100515.84
2018-07-10T01:35:02.306Z,100522.94
2018-07-10T01:37:30.641Z,100520.98
2018-07-10T01:39:58.690Z,100519.84
2018-07-10T01:42:26.666Z,100513.48
2018-07-10T01:44:54.689Z,100514.03
2018-07-10T01:47:22.765Z,100514.06
2018-07-10T01:49:50.861Z,100517.41
2018-07-10T01:52:18.844Z,100511.84
2018-07-10T01:54:46.953Z,100508.73
2018-07-10T01:57:15.133Z,100508.13
2018-07-10T01:59:43.135Z,100508.78
2018-07-10T02:02:11.090Z,100509.66
2018-07-10T02:04:39.000Z,100506.14
2018-07-10T02:07:06.965Z,100506.58
2018-07-10T02:09:35.012Z,100497.55
2018-07-10T02:12:03.317Z,100501.89
2018-07-10T02:14:31.253Z,100496.42
2018-07-10T02:16:59.161Z,100504.25
2018-07-10T02:19:27.100Z,100503.37
2018-07-10T02:21:55.117Z,100497.89
2018-07-10T02:24:25.088Z,100503.45
2018-07-10T02:26:53.449Z,100509.94
2018-07-10T02:29:21.401Z,100505.25
2018-07-10T02:31:49.754Z,100502.73
2018-07-10T02:34:17.732Z,100499.47
2018-07-10T02:36:45.854Z,100493.16
2018-07-10T02:39:15.156Z,100493.16
2018-07-10T02:41:43.257Z,100501.89
2018-07-10T02:44:11.425Z,100503.28
2018-07-10T02:46:39.293Z,100502.95
2018-07-10T02:49:17.851Z,100505.21
2018-07-10T02:51:56.006Z,100501.70
2018-07-10T02:54:26.775Z,100497.28
2018-07-10T02:56:56.865Z,100492.09
2018-07-10T02:59:34.898Z,100488.75
2018-07-10T03:02:03.902Z,100488.64
2018-07-10T03:04:33.845Z,100490.65
2018-07-10T03:07:01.853Z,100486.76
2018-07-10T03:09:29.829Z,100496.03
2018-07-10T03:11:59.009Z,100487.61
2018-07-10T03:14:26.958Z,100494.27
2018-07-10T03:16:54.901Z,100488.81
2018-07-10T03:19:23.185Z,100494.18
2018-07-10T03:21:51.328Z,100506.62
2018-07-10T03:24:19.314Z,100506.67
2018-07-10T03:26:47.357Z,100497.28
2018-07-10T03:29:15.344Z,100497.78
2018-07-10T03:31:43.361Z,100494.81
2018-07-10T03:34:11.276Z,100495.02
2018-07-10T03:36:39.288Z,100488.63
2018-07-10T03:39:07.253Z,100493.23
2018-07-10T03:41:35.337Z,100492.73
2018-07-10T03:44:03.268Z,100495.56
2018-07-10T03:46:31.240Z,100495.82
2018-07-10T03:48:59.440Z,100492.22
2018-07-10T03:51:28.086Z,100502.24
2018-07-10T03:53:56.072Z,100499.80
2018-07-10T03:56:24.342Z,100498.14
2018-07-10T03:58:55.169Z,100500.41
2018-07-10T04:01:25.573Z,100494.79
2018-07-10T04:03:54.325Z,100499.27
2018-07-10T04:06:22.237Z,100500.86
2018-07-10T04:08:50.569Z,100502.88
2018-07-10T04:11:18.517Z,100500.05
2018-07-10T04:13:46.486Z,100502.38
2018-07-10T04:16:14.597Z,100507.42
2018-07-10T04:18:42.492Z,100501.58
2018-07-10T04:21:27.554Z,100500.23
2018-07-10T04:24:29.781Z,100512.52
2018-07-10T04:27:40.413Z,100501.12
2018-07-10T04:30:18.398Z,100502.64
2018-07-10T04:32:46.437Z,100496.33
2018-07-10T04:35:17.004Z,100495.49
2018-07-10T04:37:48.576Z,100503.82
2018-07-10T04:40:17.915Z,100515.19
2018-07-10T04:42:58.335Z,100517.55
2018-07-10T04:45:40.260Z,100518.23
2018-07-10T04:48:38.372Z,100525.83
2018-07-10T04:51:36.189Z,100528.27
2018-07-10T04:54:17.946Z,100528.31
2018-07-10T04:56:55.365Z,100528.73
2018-07-10T04:59:23.341Z,100531.98
2018-07-10T05:01:51.309Z,100525.75
2018-07-10T05:04:19.420Z,100526.67
2018-07-10T05:06:47.360Z,100529.22
2018-07-10T05:09:15.482Z,100530.47
2018-07-10T05:11:44.224Z,100525.36
2018-07-10T05:14:12.216Z,100522.28
2018-07-10T05:16:40.238Z,100523.46
2018-07-10T05:19:08.453Z,100532.98
2018-07-10T05:21:36.742Z,100525.70
2018-07-10T05:24:04.766Z,100528.48
2018-07-10T05:26:32.767Z,100527.02
2018-07-10T05:29:00.848Z,100528.00
2018-07-10T05:31:29.189Z,100529.73
2018-07-10T05:33:57.292Z,100537.22
2018-07-10T05:36:25.232Z,100539.73
2018-07-10T05:38:59.952Z,100541.72
2018-07-10T05:41:27.918Z,100539.77
2018-07-10T05:43:55.845Z,100544.00
2018-07-10T05:46:24.573Z,100548.49
2018-07-10T05:49:03.192Z,100540.70
2018-07-10T05:51:46.555Z,100548.16
2018-07-10T05:54:15.086Z,100547.97
2018-07-10T05:56:43.780Z,100545.23
2018-07-10T05:59:12.613Z,100548.59
2018-07-10T06:01:41.958Z,100541.30
2018-07-10T06:04:13.134Z,100544.00
2018-07-10T06:06:41.234Z,100546.91
2018-07-10T06:09:09.553Z,100553.83
2018-07-10T06:11:37.669Z,100554.72
2018-07-10T06:14:06.645Z,100561.94
2018-07-10T06:16:37.059Z,100553.33
2018-07-10T06:19:05.137Z,100569.45
2018-07-10T06:21:37.970Z,100558.96
2018-07-10T06:24:09.781Z,100555.16
2018-07-10T06:26:42.061Z,100563.94
2018-07-10T06:29:12.832Z,100565.62
2018-07-10T06:31:51.340Z,100563.73
2018-07-10T06:34:28.126Z,100563.44
2018-07-10T06:37:03.029Z,100560.74
2018-07-10T06:39:31.013Z,100551.48
2018-07-10T06:42:09.793Z,100545.38
2018-07-10T06:44:38.339Z,100547.33
2018-07-10T06:47:13.743Z,100548.91
2018-07-10T06:49:41.773Z,100549.77
2018-07-10T06:52:16.504Z,100548.98
2018-07-10T06:54:54.978Z,100550.23
2018-07-10T06:57:32.454Z,100551.56
2018-07-10T07:00:11.349Z,100553.33
2018-07-10T07:02:40.060Z,100550.22
2018-07-10T07:05:08.301Z,100550.52
2018-07-10T07:07:37.582Z,100552.13
2018-07-10T07:10:07.465Z,100557.51
2018-07-10T07:12:36.232Z,100553.79
2018-07-10T07:15:08.337Z,100552.42
2018-07-10T07:17:41.096Z,100555.33
2018-07-10T07:20:09.186Z,100565.86
2018-07-10T07:22:37.198Z,100558.05
2018-07-10T07:25:05.053Z,100559.23
2018-07-10T07:27:33.105Z,100554.81
2018-07-10T07:30:01.685Z,100552.00
2018-07-10T07:32:30.423Z,100541.08
2018-07-10T07:34:58.349Z,100541.33
2018-07-10T07:37:26.752Z,100537.42
2018-07-10T07:39:55.728Z,100539.52
2018-07-10T07:42:25.761Z,100540.70
2018-07-10T07:44:53.825Z,100550.29
2018-07-10T07:47:27.488Z,100536.36
2018-07-10T07:49:55.781Z,100543.82
2018-07-10T07:52:26.438Z,100549.74
2018-07-10T07:54:54.540Z,100536.98
2018-07-10T07:57:23.241Z,100541.95
2018-07-10T07:59:51.513Z,100534.22
2018-07-10T08:02:20.148Z,100528.30
2018-07-10T08:04:48.197Z,100533.31
2018-07-10T08:07:16.975Z,100534.14
2018-07-10T08:09:45.075Z,100525.76
2018-07-10T08:12:13.665Z,100521.12
2018-07-10T08:14:41.760Z,100523.47
2018-07-10T08:17:09.756Z,100521.00
2018-07-10T08:19:37.730Z,100519.69
2018-07-10T08:22:05.886Z,100518.66
2018-07-10T08:24:34.409Z,100513.71
2018-07-10T08:27:02.666Z,100503.27
2018-07-10T08:29:30.641Z,100512.25
2018-07-10T08:31:58.609Z,100508.86
2018-07-10T08:34:27.145Z,100507.91
2018-07-10T08:36:55.324Z,100504.30
2018-07-10T08:39:23.337Z,100502.08
2018-07-10T08:41:51.486Z,100505.23
2018-07-10T08:44:20.433Z,100491.50
2018-07-10T08:46:52.390Z,100507.59
2018-07-10T08:49:21.715Z,100506.30
2018-07-10T08:51:51.625Z,100496.42
2018-07-10T08:54:22.141Z,100489.47
2018-07-10T08:56:50.581Z,100490.39
2018-07-10T08:59:18.949Z,100490.03
2018-07-10T09:01:47.801Z,100491.32
2018-07-10T09:04:16.985Z,100494.80
2018-07-10T09:06:45.145Z,100483.92
2018-07-10T09:09:13.641Z,100490.86
2018-07-10T09:11:42.424Z,100487.22
2018-07-10T09:14:10.597Z,100489.62
2018-07-10T09:16:38.824Z,100488.88
2018-07-10T09:19:09.105Z,100490.69
2018-07-10T09:21:37.093Z,100491.02
2018-07-10T09:24:06.100Z,100483.94
2018-07-10T09:26:35.101Z,100478.73
2018-07-10T09:29:03.983Z,100482.22
2018-07-10T09:31:33.809Z,100481.37
2018-07-10T09:34:01.787Z,100482.53
2018-07-10T09:36:30.059Z,100491.75
2018-07-10T09:38:58.101Z,100484.59
2018-07-10T09:41:27.728Z,100486.81
2018-07-10T09:43:56.254Z,100484.78
2018-07-10T09:46:28.613Z,100480.75
2018-07-10T09:48:57.260Z,100474.72
2018-07-10T09:51:25.370Z,100480.87
2018-07-10T09:53:53.322Z,100478.73
2018-07-10T09:56:21.277Z,100479.02
2018-07-10T09:58:52.785Z,100472.34
2018-07-10T10:01:26.525Z,100466.67
2018-07-10T10:03:55.204Z,100472.71
2018-07-10T10:06:24.124Z,100474.14
2018-07-10T10:08:52.626Z,100470.55
2018-07-10T10:11:21.065Z,100461.92
2018-07-10T10:13:49.054Z,100465.03
2018-07-10T10:16:17.260Z,100454.41
2018-07-10T10:18:45.946Z,100452.41
2018-07-10T10:21:13.788Z,100451.86
2018-07-10T10:23:42.870Z,100444.78
2018-07-10T10:26:12.994Z,100447.05
2018-07-10T10:28:41.425Z,100442.84
2018-07-10T10:31:09.566Z,100444.61
2018-07-10T10:33:37.964Z,100440.42
2018-07-10T10:36:05.998Z,100434.81
2018-07-10T10:38:38.297Z,100443.34
2018-07-10T10:41:06.460Z,100432.22
2018-07-10T10:43:34.540Z,100435.75
2018-07-10T10:46:02.626Z,100434.39
2018-07-10T10:48:30.658Z,100431.29
2018-07-10T10:50:58.956Z,100429.98
2018-07-10T10:53:27.353Z,100425.13
2018-07-10T10:55:55.655Z,100418.62
2018-07-10T10:58:23.592Z,100421.02
2018-07-10T11:00:52.297Z,100414.88
2018-07-10T11:03:20.264Z,100411.86
2018-07-10T11:05:48.260Z,100405.40
2018-07-10T11:08:16.692Z,100414.08
2018-07-10T11:10:45.712Z,100415.90
2018-07-10T11:13:16.063Z,100417.95
2018-07-10T11:15:46.389Z,100419.22
2018-07-10T11:19:23.009Z,100415.47
2018-07-10T11:22:07.094Z,100413.75
2018-07-10T11:25:04.089Z,100417.95
2018-07-10T11:28:01.865Z,100415.91
2018-07-10T11:30:30.150Z,100414.14
2018-07-10T11:32:58.065Z,100410.23
2018-07-10T11:35:26.141Z,100403.66
2018-07-10T11:37:55.213Z,100408.00
2018-07-10T11:40:23.120Z,100412.45
2018-07-10T11:42:51.183Z,100410.48
2018-07-10T11:45:19.169Z,100408.71
2018-07-10T11:47:47.184Z,100406.05
2018-07-10T11:50:15.337Z,100402.69
2018-07-10T11:52:43.254Z,100402.22
2018-07-10T11:55:11.382Z,100401.66
2018-07-10T11:57:39.677Z,100398.12
2018-07-10T12:00:07.736Z,100391.88
2018-07-10T12:02:43.433Z,100398.31
2018-07-10T12:05:12.132Z,100392.69
2018-07-10T12:07:40.793Z,100399.08
2018-07-10T12:10:19.771Z,100394.64
2018-07-10T12:12:48.833Z,100392.55
2018-07-10T12:15:17.113Z,100394.62
2018-07-10T12:17:48.038Z,100387.52
2018-07-10T12:20:16.866Z,100379.86
2018-07-10T12:22:44.833Z,100378.95
2018-07-10T12:25:12.805Z,100368.87
2018-07-10T12:27:40.802Z,100372.55
2018-07-10T12:30:09.025Z,100370.14
2018-07-10T12:32:38.520Z,100371.03
2018-07-10T12:35:07.537Z,100373.38
2018-07-10T12:37:38.205Z,100380.06
2018-07-10T12:40:06.189Z,100373.53
2018-07-10T12:42:35.173Z,100373.08
2018-07-10T12:45:03.178Z,100377.30
2018-07-10T12:47:31.480Z,100378.69
2018-07-10T12:49:59.657Z,100383.13
2018-07-10T12:52:27.781Z,100381.54
2018-07-10T12:54:58.773Z,100382.52
2018-07-10T12:57:30.447Z,100387.70
2018-07-10T12:59:58.370Z,100380.84
2018-07-10T13:02:26.317Z,100379.13
2018-07-10T13:04:54.561Z,100374.52
2018-07-10T13:07:22.516Z,100368.24
2018-07-10T13:09:50.470Z,100365.38
2018-07-10T13:12:18.436Z,100355.43
2018-07-10T13:14:46.428Z,100355.09
2018-07-10T13:17:14.378Z,100358.16
2018-07-10T13:19:42.363Z,100365.28
2018-07-10T13:22:10.214Z,100358.66
2018-07-10T13:24:38.145Z,100351.27
2018-07-10T13:27:06.173Z,100359.73
2018-07-10T13:29:34.096Z,100358.42
2018-07-10T13:32:02.101Z,100365.73
2018-07-10T13:34:30.568Z,100371.64
2018-07-10T13:36:58.493Z,100368.57
2018-07-10T13:39:26.653Z,100378.29
2018-07-10T13:41:54.530Z,100370.83
2018-07-10T13:44:22.582Z,100378.25
2018-07-10T13:46:50.573Z,100375.64
2018-07-10T13:49:18.621Z,100380.34
2018-07-10T13:51:46.608Z,100386.04
2018-07-10T13:54:14.603Z,100383.95
2018-07-10T13:56:42.533Z,100380.84
2018-07-10T13:59:10.490Z,100376.55
2018-07-10T14:01:39.295Z,100382.86
2018-07-10T14:04:07.506Z,100375.41
2018-07-10T14:06:35.420Z,100379.76
2018-07-10T14:09:04.049Z,100375.99
2018-07-10T14:11:32.115Z,100377.02
2018-07-10T14:14:00.174Z,100365.06
2018-07-10T14:16:28.837Z,100363.11
2018-07-10T14:18:59.277Z,100366.01
2018-07-10T14:21:29.209Z,100362.27
2018-07-10T14:23:57.101Z,100364.25
2018-07-10T14:26:25.156Z,100364.81
2018-07-10T14:28:53.183Z,100362.99
2018-07-10T14:31:21.389Z,100360.97
2018-07-10T14:33:49.310Z,100347.16
2018-07-10T14:36:18.504Z,100355.55
2018-07-10T14:38:46.749Z,100353.36
2018-07-10T14:41:15.546Z,100349.62
2018-07-10T14:43:45.937Z,100354.28
2018-07-10T14:46:19.733Z,100350.69
2018-07-10T14:48:56.050Z,100341.11
2018-07-10T14:51:36.876Z,100352.63
2018-07-10T14:54:04.900Z,100350.69
2018-07-10T14:56:33.434Z,100349.77
2018-07-10T14:59:01.589Z,100345.67
2018-07-10T15:01:30.263Z,100349.89
2018-07-10T15:03:58.233Z,100345.50
2018-07-10T15:06:26.237Z,100342.34
2018-07-10T15:08:54.274Z,100347.25
2018-07-10T15:11:22.563Z,100345.50
2018-07-10T15:14:01.986Z,100348.77
2018-07-10T15:16:36.184Z,100341.95
2018-07-10T15:19:14.425Z,100348.16
2018-07-10T15:21:42.509Z,100349.53
2018-07-10T15:24:11.041Z,100346.41
2018-07-10T15:26:39.207Z,100343.49
2018-07-10T15:29:07.286Z,100342.56
2018-07-10T15:31:35.276Z,100343.47
2018-07-10T15:34:03.385Z,100339.53
2018-07-10T15:36:31.391Z,100338.33
2018-07-10T15:38:59.449Z,100336.01
2018-07-10T15:41:29.813Z,100331.14
2018-07-10T15:43:58.301Z,100333.83
2018-07-10T15:46:26.333Z,100336.05
2018-07-10T15:48:54.281Z,100336.79
2018-07-10T15:51:22.280Z,100337.84
2018-07-10T15:53:50.303Z,100330.83
2018-07-10T15:56:18.185Z,100348.25
2018-07-10T15:58:46.289Z,100338.94
2018-07-10T16:01:14.233Z,100346.47
2018-07-10T16:03:42.213Z,100339.77
2018-07-10T16:06:10.540Z,100336.62
2018-07-10T16:08:39.224Z,100344.36
2018-07-10T16:11:07.232Z,100346.92
2018-07-10T16:13:39.169Z,100342.23
2018-07-10T16:16:09.917Z,100345.53
2018-07-10T16:18:39.800Z,100341.21
2018-07-10T16:21:07.705Z,100340.02
2018-07-10T16:23:36.005Z,100337.89
2018-07-10T16:26:07.052Z,100339.70
2018-07-10T16:28:39.101Z,100342.18
2018-07-10T16:31:10.055Z,100332.52
2018-07-10T16:33:37.995Z,100331.83
2018-07-10T16:36:07.109Z,100332.01
2018-07-10T16:38:36.492Z,100329.03
2018-07-10T16:41:10.629Z,100327.64
2018-07-10T16:43:38.809Z,100325.77
2018-07-10T16:46:06.796Z,100324.84
2018-07-10T16:48:46.701Z,100320.19
2018-07-10T16:51:30.436Z,100318.80
2018-07-10T16:54:00.101Z,100308.77
2018-07-10T16:56:28.242Z,100312.97
2018-07-10T16:58:57.009Z,100313.92
2018-07-10T17:01:26.212Z,100319.27
2018-07-10T17:03:55.006Z,100305.06
2018-07-10T17:06:24.061Z,100302.92
2018-07-10T17:08:52.085Z,100303.57
2018-07-10T17:11:20.053Z,100302.51
2018-07-10T17:13:47.985Z,100300.47
2018-07-10T17:16:21.171Z,100307.53
2018-07-10T17:18:49.455Z,100307.21
2018-07-10T17:21:17.365Z,100302.75
2018-07-10T17:23:45.300Z,100301.03
2018-07-10T17:26:13.128Z,100304.91
2018-07-10T17:28:41.410Z,100297.53
2018-07-10T17:31:09.418Z,100308.77
2018-07-10T17:33:37.314Z,100300.16
2018-07-10T17:36:05.257Z,100304.48
2018-07-10T17:38:33.734Z,100309.13
2018-07-10T17:41:02.319Z,100310.36
2018-07-10T17:43:30.370Z,100313.87
2018-07-10T17:45:58.328Z,100318.30
2018-07-10T17:48:26.365Z,100314.09
2018-07-10T17:50:55.370Z,100316.20
2018-07-10T17:53:23.388Z,100318.39
2018-07-10T17:55:51.875Z,100315.58
2018-07-10T17:58:21.517Z,100316.64
2018-07-10T18:00:49.508Z,100325.20
2018-07-10T18:03:17.388Z,100324.75
2018-07-10T18:05:47.324Z,100318.00
2018-07-10T18:08:15.901Z,100311.66
2018-07-10T18:10:44.242Z,100307.23
2018-07-10T18:13:12.460Z,100295.38
2018-07-10T18:15:40.461Z,100291.70
2018-07-10T18:18:08.785Z,100304.56
2018-07-10T18:20:36.753Z,100292.36
2018-07-10T18:23:05.037Z,100300.26
2018-07-10T18:25:32.893Z,100293.88
2018-07-10T18:28:00.810Z,100288.67
2018-07-10T18:30:28.701Z,100293.01
2018-07-10T18:32:56.562Z,100283.14
2018-07-10T18:35:24.601Z,100288.00
2018-07-10T18:37:52.593Z,100285.33
2018-07-10T18:40:20.545Z,100291.47
2018-07-10T18:42:48.525Z,100296.86
2018-07-10T18:45:16.545Z,100292.02
2018-07-10T18:47:44.488Z,100290.11
2018-07-10T18:50:12.523Z,100290.87
2018-07-10T18:52:40.495Z,100291.44
2018-07-10T18:55:08.573Z,100286.98
2018-07-10T18:58:04.336Z,100287.91
2018-07-10T19:00:47.101Z,100291.23
2018-07-10T19:03:16.474Z,100295.78
2018-07-10T19:05:48.028Z,100286.88
2018-07-10T19:08:16.156Z,100294.41
2018-07-10T19:10:45.489Z,100294.31
2018-07-10T19:13:13.777Z,100284.17
2018-07-10T19:15:42.830Z,100282.78
2018-07-10T19:18:10.757Z,100275.75
2018-07-10T19:20:41.461Z,100275.02
2018-07-10T19:23:25.054Z,100274.55
2018-07-10T19:25:54.273Z,100281.00
2018-07-10T19:28:22.242Z,100271.17
2018-07-10T19:31:05.479Z,100272.25
2018-07-10T19:33:33.660Z,100271.59
2018-07-10T19:36:01.634Z,100260.41
2018-07-10T19:38:29.833Z,100265.62
2018-07-10T19:40:57.817Z,100265.38
2018-07-10T19:43:25.736Z,100257.95
2018-07-10T19:45:54.453Z,100264.55
2018-07-10T19:48:22.427Z,100263.14
2018-07-10T19:50:50.365Z,100261.33
2018-07-10T19:53:18.565Z,100261.67
2018-07-10T19:55:46.584Z,100266.91
2018-07-10T19:58:29.269Z,100262.97
2018-07-10T20:01:29.181Z,100265.70
2018-07-10T20:04:05.713Z,100269.05
2018-07-10T20:06:47.469Z,100279.07
2018-07-10T20:09:23.397Z,100282.23
2018-07-10T20:12:03.241Z,100297.19
2018-07-10T20:14:39.681Z,100300.84
2018-07-10T20:17:10.808Z,100295.85
2018-07-10T20:19:48.657Z,100295.22
2018-07-10T20:22:31.220Z,100293.31
2018-07-10T20:26:07.965Z,100292.09
2018-07-10T20:30:03.496Z,100298.45
2018-07-10T20:32:43.332Z,100300.03
2018-07-10T20:35:16.282Z,100316.73
2018-07-10T20:37:46.905Z,100321.47
2018-07-10T20:40:39.997Z,100334.26
2018-07-10T20:43:14.194Z,100336.34
2018-07-10T20:45:48.319Z,100332.72
2018-07-10T20:48:58.398Z,100335.66
2018-07-10T20:51:34.572Z,100336.59
2018-07-10T20:54:15.027Z,100336.58
2018-07-10T20:58:58.412Z,100333.57
2018-07-10T21:01:29.913Z,100323.66
2018-07-10T21:04:07.020Z,100332.25
2018-07-10T21:06:58.845Z,100333.41
2018-07-10T21:09:57.469Z,100330.11
2018-07-10T21:12:33.202Z,100336.19
2018-07-10T21:15:05.141Z,100332.34
2018-07-10T21:19:49.016Z,100336.20
2018-07-10T21:23:33.628Z,100332.91
2018-07-10T21:26:12.781Z,100333.44
2018-07-10T21:28:46.208Z,100334.27
2018-07-10T21:31:28.845Z,100331.25
2018-07-10T21:34:10.501Z,100320.75
2018-07-10T21:37:08.185Z,100326.02
2018-07-10T21:39:50.915Z,100316.09
2018-07-10T21:43:35.465Z,100316.65
2018-07-10T21:46:17.941Z,100303.14
2018-07-10T21:49:58.673Z,100308.36
2018-07-10T21:52:26.693Z,100303.97
2018-07-10T21:54:54.590Z,100304.49
2018-07-10T21:57:24.936Z,100302.84
2018-07-10T21:59:56.140Z,100303.94
2018-07-10T22:02:24.361Z,100295.66
2018-07-10T22:04:55.773Z,100293.75
2018-07-10T22:07:26.026Z,100306.16
2018-07-10T22:09:55.992Z,100311.41
2018-07-10T22:12:24.001Z,100312.48
2018-07-10T22:14:51.982Z,100305.59
2018-07-10T22:17:22.177Z,100311.39
2018-07-10T22:19:52.413Z,100309.47
2018-07-10T22:22:29.663Z,100305.63
2018-07-10T22:25:01.009Z,100313.88
2018-07-10T22:27:28.893Z,100314.70
2018-07-10T22:30:04.633Z,100305.88
2018-07-10T22:32:46.192Z,100316.06
2018-07-10T22:35:15.237Z,100318.80
2018-07-10T22:37:43.282Z,100318.52
2018-07-10T22:40:11.258Z,100320.16
2018-07-10T22:42:39.213Z,100326.20
2018-07-10T22:45:07.309Z,100329.23
2018-07-10T22:47:38.768Z,100330.86
2018-07-10T22:50:13.837Z,100333.63
2018-07-10T22:52:45.972Z,100340.22
2018-07-10T22:55:17.828Z,100328.38
2018-07-10T22:57:46.473Z,100323.68
2018-07-10T23:00:26.910Z,100331.61
2018-07-10T23:02:54.821Z,100331.28
2018-07-10T23:05:22.744Z,100331.06
2018-07-10T23:07:50.753Z,100327.15
2018-07-10T23:10:18.740Z,100325.47
2018-07-10T23:12:46.677Z,100321.83
2018-07-10T23:15:14.876Z,100316.53
2018-07-10T23:17:42.809Z,100314.60
2018-07-10T23:20:10.762Z,100320.89
2018-07-10T23:22:53.540Z,100319.75
2018-07-10T23:25:23.409Z,100310.92
2018-07-10T23:27:59.889Z,100306.78
2018-07-10T23:30:30.838Z,100301.30
2018-07-10T23:32:58.852Z,100303.25
2018-07-10T23:35:27.103Z,100303.21
2018-07-10T23:37:59.657Z,100305.65
2018-07-10T23:40:27.754Z,100306.20
2018-07-10T23:42:56.077Z,100306.20
2018-07-10T23:45:27.178Z,100302.89
2018-07-10T23:48:00.623Z,100301.20
2018-07-10T23:50:29.601Z,100297.63
2018-07-10T23:53:45.526Z,100300.61
2018-07-10T23:56:13.925Z,100304.69
2018-07-10T23:58:41.949Z,100302.81
